sensor_id;sensor_type;location;lat;lon;timestamp;temperature;humidity
34522;DHT22;25561;48.888;8.736;2023-05-02T05:32:56;10.10;99.90
34522;DHT22;25561;48.888;8.736;2023-05-02T05:36:08;10.40;99.90
34522;DHT22;25561;48.888;8.736;2023-05-02T05:39:10;10.30;99.90
34522;DHT22;25561;48.888;8.736;2023-05-02T05:42:12;10.40;99.90
34522;DHT22;25561;48.888;8.736;2023-05-02T05:45:15;10.30;99.90
34522;DHT22;25561;48.888;8.736;2023-05-02T05:48:20;10.30;99.90
34522;DHT22;25561;48.888;8.736;2023-05-02T05:51:24;10.30;99.90
34522;DHT22;25561;48.888;8.736;2023-05-02T05:54:28;10.50;99.90
34522;DHT22;25561;48.888;8.736;2023-05-02T05:57:30;10.60;99.90
34522;DHT22;25561;48.888;8.736;2023-05-02T06:00:37;10.80;99.90
34522;DHT22;25561;48.888;8.736;2023-05-02T06:03:39;11.10;99.90
34522;DHT22;25561;48.888;8.736;2023-05-02T06:06:41;11.20;99.90
34522;DHT22;25561;48.888;8.736;2023-05-02T06:09:43;11.40;99.90
34522;DHT22;25561;48.888;8.736;2023-05-02T06:49:21;11.50;99.90
34522;DHT22;25561;48.888;8.736;2023-05-02T06:52:24;12.00;99.90
34522;DHT22;25561;48.888;8.736;2023-05-02T06:55:27;12.40;99.90
34522;DHT22;25561;48.888;8.736;2023-05-02T06:58:30;12.80;99.90
34522;DHT22;25561;48.888;8.736;2023-05-02T07:01:32;13.00;99.90
34522;DHT22;25561;48.888;8.736;2023-05-02T07:04:35;13.00;99.90
34522;DHT22;25561;48.888;8.736;2023-05-02T07:07:38;13.00;99.90
34522;DHT22;25561;48.888;8.736;2023-05-02T07:10:41;12.80;99.90
34522;DHT22;25561;48.888;8.736;2023-05-02T07:13:47;12.60;99.90
34522;DHT22;25561;48.888;8.736;2023-05-02T07:16:49;12.30;99.90
34522;DHT22;25561;48.888;8.736;2023-05-02T07:19:51;12.40;99.90
34522;DHT22;25561;48.888;8.736;2023-05-02T07:22:53;12.40;99.90
34522;DHT22;25561;48.888;8.736;2023-05-02T07:25:55;12.20;99.90
34522;DHT22;25561;48.888;8.736;2023-05-02T07:28:57;12.30;99.90
34522;DHT22;25561;48.888;8.736;2023-05-02T07:31:59;12.40;99.90
34522;DHT22;25561;48.888;8.736;2023-05-02T07:35:02;12.20;99.90
34522;DHT22;25561;48.888;8.736;2023-05-02T07:38:04;12.20;99.90
34522;DHT22;25561;48.888;8.736;2023-05-02T07:41:07;12.10;99.90
34522;DHT22;25561;48.888;8.736;2023-05-02T07:44:11;12.10;99.90
34522;DHT22;25561;48.888;8.736;2023-05-02T07:47:14;12.10;99.90
34522;DHT22;25561;48.888;8.736;2023-05-02T07:50:20;12.00;99.90
34522;DHT22;25561;48.888;8.736;2023-05-02T07:53:24;12.10;99.90
34522;DHT22;25561;48.888;8.736;2023-05-02T07:56:26;12.50;99.90
34522;DHT22;25561;48.888;8.736;2023-05-02T07:59:29;12.90;99.90
34522;DHT22;25561;48.888;8.736;2023-05-02T08:02:33;12.70;99.90
34522;DHT22;25561;48.888;8.736;2023-05-02T08:05:38;13.00;99.90
34522;DHT22;25561;48.888;8.736;2023-05-02T08:08:40;13.40;99.90
34522;DHT22;25561;48.888;8.736;2023-05-02T08:11:43;14.20;99.90
34522;DHT22;25561;48.888;8.736;2023-05-02T08:14:46;14.30;99.90
34522;DHT22;25561;48.888;8.736;2023-05-02T08:17:48;15.20;99.90
34522;DHT22;25561;48.888;8.736;2023-05-02T08:20:50;15.40;99.90
34522;DHT22;25561;48.888;8.736;2023-05-02T08:23:57;15.50;99.90
34522;DHT22;25561;48.888;8.736;2023-05-02T08:26:59;14.60;99.90
34522;DHT22;25561;48.888;8.736;2023-05-02T08:30:05;14.80;99.90
34522;DHT22;25561;48.888;8.736;2023-05-02T08:33:09;15.00;99.90
34522;DHT22;25561;48.888;8.736;2023-05-02T08:36:17;15.30;99.90
34522;DHT22;25561;48.888;8.736;2023-05-02T08:39:21;15.40;99.90
34522;DHT22;25561;48.888;8.736;2023-05-02T08:42:25;16.10;99.90
34522;DHT22;25561;48.888;8.736;2023-05-02T08:45:36;16.90;99.90
34522;DHT22;25561;48.888;8.736;2023-05-02T08:48:44;16.90;99.90
34522;DHT22;25561;48.888;8.736;2023-05-02T08:51:48;16.70;99.90
34522;DHT22;25561;48.888;8.736;2023-05-02T08:54:54;17.50;99.90
34522;DHT22;25561;48.888;8.736;2023-05-02T08:57:57;18.40;99.90
34522;DHT22;25561;48.888;8.736;2023-05-02T09:01:01;17.90;99.90
34522;DHT22;25561;48.888;8.736;2023-05-02T09:04:06;17.70;99.90
34522;DHT22;25561;48.888;8.736;2023-05-02T09:07:09;17.10;99.90
34522;DHT22;25561;48.888;8.736;2023-05-02T09:10:13;16.20;99.90
34522;DHT22;25561;48.888;8.736;2023-05-02T09:13:32;16.20;99.90
34522;DHT22;25561;48.888;8.736;2023-05-02T09:16:38;16.50;99.90
34522;DHT22;25561;48.888;8.736;2023-05-02T09:19:41;17.00;99.90
34522;DHT22;25561;48.888;8.736;2023-05-02T09:22:48;16.00;99.90
34522;DHT22;25561;48.888;8.736;2023-05-02T09:25:51;15.70;99.90
34522;DHT22;25561;48.888;8.736;2023-05-02T09:28:54;15.70;99.90
34522;DHT22;25561;48.888;8.736;2023-05-02T09:31:57;15.20;99.90
34522;DHT22;25561;48.888;8.736;2023-05-02T09:35:06;15.40;99.90
34522;DHT22;25561;48.888;8.736;2023-05-02T09:38:18;15.60;99.90
34522;DHT22;25561;48.888;8.736;2023-05-02T09:41:22;16.00;99.90
34522;DHT22;25561;48.888;8.736;2023-05-02T09:44:35;18.20;99.90
34522;DHT22;25561;48.888;8.736;2023-05-02T09:47:40;18.40;99.90
34522;DHT22;25561;48.888;8.736;2023-05-02T09:50:45;17.50;99.90
34522;DHT22;25561;48.888;8.736;2023-05-02T09:53:49;17.20;99.90
34522;DHT22;25561;48.888;8.736;2023-05-02T09:56:57;16.30;99.90
34522;DHT22;25561;48.888;8.736;2023-05-02T10:00:00;15.70;99.90
34522;DHT22;25561;48.888;8.736;2023-05-02T10:03:06;16.20;99.90
34522;DHT22;25561;48.888;8.736;2023-05-02T10:06:11;16.00;99.90
34522;DHT22;25561;48.888;8.736;2023-05-02T10:09:15;16.30;99.90
34522;DHT22;25561;48.888;8.736;2023-05-02T10:12:25;16.00;99.90
34522;DHT22;25561;48.888;8.736;2023-05-02T10:15:32;16.60;99.90
34522;DHT22;25561;48.888;8.736;2023-05-02T10:18:53;17.50;99.90
34522;DHT22;25561;48.888;8.736;2023-05-02T10:22:00;19.90;99.90
34522;DHT22;25561;48.888;8.736;2023-05-02T10:25:06;21.80;99.90
34522;DHT22;25561;48.888;8.736;2023-05-02T10:28:10;23.00;99.90
34522;DHT22;25561;48.888;8.736;2023-05-02T10:31:18;22.00;99.90
34522;DHT22;25561;48.888;8.736;2023-05-02T10:34:32;21.70;99.90
34522;DHT22;25561;48.888;8.736;2023-05-02T10:37:36;20.70;99.90
34522;DHT22;25561;48.888;8.736;2023-05-02T10:40:55;18.80;99.90
34522;DHT22;25561;48.888;8.736;2023-05-02T10:44:01;18.50;99.90
34522;DHT22;25561;48.888;8.736;2023-05-02T10:47:25;18.40;99.90
34522;DHT22;25561;48.888;8.736;2023-05-02T10:50:45;18.50;99.90
34522;DHT22;25561;48.888;8.736;2023-05-02T10:53:48;18.10;99.90
34522;DHT22;25561;48.888;8.736;2023-05-02T10:57:09;19.20;99.90
34522;DHT22;25561;48.888;8.736;2023-05-02T11:00:20;19.90;99.90
34522;DHT22;25561;48.888;8.736;2023-05-02T11:03:54;20.00;99.90
34522;DHT22;25561;48.888;8.736;2023-05-02T11:13:49;17.90;99.90
34522;DHT22;25561;48.888;8.736;2023-05-02T11:26:20;17.10;99.90
34522;DHT22;25561;48.888;8.736;2023-05-02T11:29:50;17.10;99.90
34522;DHT22;25561;48.888;8.736;2023-05-02T11:35:56;17.60;99.90
34522;DHT22;25561;48.888;8.736;2023-05-02T11:39:00;17.10;99.90
34522;DHT22;25561;48.888;8.736;2023-05-02T11:42:02;16.60;99.90
34522;DHT22;25561;48.888;8.736;2023-05-02T11:45:04;16.20;99.90
34522;DHT22;25561;48.888;8.736;2023-05-02T11:48:07;16.00;99.90
34522;DHT22;25561;48.888;8.736;2023-05-02T11:51:10;15.80;99.90
34522;DHT22;25561;48.888;8.736;2023-05-02T11:54:19;16.30;99.90
34522;DHT22;25561;48.888;8.736;2023-05-02T11:57:22;16.50;99.90
34522;DHT22;25561;48.888;8.736;2023-05-02T12:00:26;16.80;99.90
34522;DHT22;25561;48.888;8.736;2023-05-02T12:03:30;17.10;99.90
34522;DHT22;25561;48.888;8.736;2023-05-02T12:06:33;17.40;99.90
34522;DHT22;25561;48.888;8.736;2023-05-02T12:09:36;17.50;99.90
34522;DHT22;25561;48.888;8.736;2023-05-02T12:12:50;17.80;99.90
34522;DHT22;25561;48.888;8.736;2023-05-02T12:16:05;17.80;99.90
34522;DHT22;25561;48.888;8.736;2023-05-02T12:19:08;17.90;99.90
34522;DHT22;25561;48.888;8.736;2023-05-02T12:22:10;17.70;99.90
34522;DHT22;25561;48.888;8.736;2023-05-02T12:25:13;18.00;99.90
34522;DHT22;25561;48.888;8.736;2023-05-02T12:28:17;17.90;99.90
34522;DHT22;25561;48.888;8.736;2023-05-02T12:31:25;18.10;99.90
34522;DHT22;25561;48.888;8.736;2023-05-02T12:34:32;17.90;99.90
34522;DHT22;25561;48.888;8.736;2023-05-02T12:37:34;18.10;99.90
34522;DHT22;25561;48.888;8.736;2023-05-02T12:40:37;18.00;99.90
34522;DHT22;25561;48.888;8.736;2023-05-02T12:43:47;17.80;99.90
34522;DHT22;25561;48.888;8.736;2023-05-02T12:46:59;18.00;99.90
34522;DHT22;25561;48.888;8.736;2023-05-02T12:50:02;18.30;99.90
34522;DHT22;25561;48.888;8.736;2023-05-02T12:53:04;18.20;99.90
34522;DHT22;25561;48.888;8.736;2023-05-02T12:56:07;18.40;99.90
34522;DHT22;25561;48.888;8.736;2023-05-02T12:59:27;18.10;99.90
34522;DHT22;25561;48.888;8.736;2023-05-02T13:02:30;18.00;99.90
34522;DHT22;25561;48.888;8.736;2023-05-02T13:05:33;17.40;99.90
34522;DHT22;25561;48.888;8.736;2023-05-02T13:08:35;17.20;99.90
34522;DHT22;25561;48.888;8.736;2023-05-02T13:11:37;17.10;99.90
34522;DHT22;25561;48.888;8.736;2023-05-02T13:14:40;16.90;99.90
34522;DHT22;25561;48.888;8.736;2023-05-02T13:17:41;16.30;99.90
34522;DHT22;25561;48.888;8.736;2023-05-02T13:20:44;16.60;99.90
34522;DHT22;25561;48.888;8.736;2023-05-02T13:23:49;16.80;99.90
34522;DHT22;25561;48.888;8.736;2023-05-02T13:26:51;16.90;99.90
34522;DHT22;25561;48.888;8.736;2023-05-02T13:29:53;16.80;99.90
34522;DHT22;25561;48.888;8.736;2023-05-02T13:32:55;16.80;99.90
34522;DHT22;25561;48.888;8.736;2023-05-02T13:35:59;16.90;99.90
34522;DHT22;25561;48.888;8.736;2023-05-02T13:39:01;17.10;99.90
34522;DHT22;25561;48.888;8.736;2023-05-02T13:42:03;17.10;99.90
34522;DHT22;25561;48.888;8.736;2023-05-02T13:45:07;17.20;99.90
34522;DHT22;25561;48.888;8.736;2023-05-02T13:48:09;17.50;99.90
34522;DHT22;25561;48.888;8.736;2023-05-02T13:51:11;17.70;99.90
34522;DHT22;25561;48.888;8.736;2023-05-02T13:54:13;17.60;99.90
34522;DHT22;25561;48.888;8.736;2023-05-02T13:57:16;17.30;99.90
34522;DHT22;25561;48.888;8.736;2023-05-02T14:00:17;17.20;99.90
34522;DHT22;25561;48.888;8.736;2023-05-02T14:03:20;17.00;99.90
34522;DHT22;25561;48.888;8.736;2023-05-02T14:06:22;16.60;99.90
34522;DHT22;25561;48.888;8.736;2023-05-02T14:09:24;16.50;99.90
34522;DHT22;25561;48.888;8.736;2023-05-02T14:12:26;16.90;99.90
34522;DHT22;25561;48.888;8.736;2023-05-02T14:15:28;17.00;99.90
34522;DHT22;25561;48.888;8.736;2023-05-02T14:18:31;17.40;99.90
34522;DHT22;25561;48.888;8.736;2023-05-02T14:21:32;17.80;99.90
34522;DHT22;25561;48.888;8.736;2023-05-02T14:24:34;18.10;99.90
34522;DHT22;25561;48.888;8.736;2023-05-02T14:27:36;17.70;99.90
34522;DHT22;25561;48.888;8.736;2023-05-02T14:30:38;17.60;99.90
34522;DHT22;25561;48.888;8.736;2023-05-02T14:33:40;17.50;99.90
34522;DHT22;25561;48.888;8.736;2023-05-02T14:36:42;17.00;99.90
34522;DHT22;25561;48.888;8.736;2023-05-02T14:39:44;17.20;99.90
34522;DHT22;25561;48.888;8.736;2023-05-02T14:42:48;17.50;99.90
34522;DHT22;25561;48.888;8.736;2023-05-02T14:45:50;17.70;99.90
34522;DHT22;25561;48.888;8.736;2023-05-02T14:48:52;17.70;99.90
34522;DHT22;25561;48.888;8.736;2023-05-02T14:51:54;17.30;99.90
34522;DHT22;25561;48.888;8.736;2023-05-02T14:54:59;17.50;99.90
34522;DHT22;25561;48.888;8.736;2023-05-02T14:58:01;17.90;99.90
34522;DHT22;25561;48.888;8.736;2023-05-02T15:01:03;17.80;99.90
34522;DHT22;25561;48.888;8.736;2023-05-02T15:04:05;17.70;99.90
34522;DHT22;25561;48.888;8.736;2023-05-02T15:07:09;17.60;99.90
34522;DHT22;25561;48.888;8.736;2023-05-02T15:10:11;17.30;99.90
34522;DHT22;25561;48.888;8.736;2023-05-02T15:13:13;17.30;99.90
34522;DHT22;25561;48.888;8.736;2023-05-02T15:16:15;17.40;99.90
34522;DHT22;25561;48.888;8.736;2023-05-02T15:19:17;17.20;99.90
34522;DHT22;25561;48.888;8.736;2023-05-02T15:22:18;17.40;99.90
34522;DHT22;25561;48.888;8.736;2023-05-02T15:25:21;17.10;99.90
34522;DHT22;25561;48.888;8.736;2023-05-02T15:28:24;17.00;99.90
34522;DHT22;25561;48.888;8.736;2023-05-02T15:31:26;16.80;99.90
34522;DHT22;25561;48.888;8.736;2023-05-02T15:34:28;16.90;99.90
34522;DHT22;25561;48.888;8.736;2023-05-02T15:37:30;16.90;99.90
34522;DHT22;25561;48.888;8.736;2023-05-02T15:40:32;16.80;99.90
34522;DHT22;25561;48.888;8.736;2023-05-02T15:43:34;16.60;99.90
34522;DHT22;25561;48.888;8.736;2023-05-02T15:46:36;16.80;99.90
34522;DHT22;25561;48.888;8.736;2023-05-02T15:49:40;16.90;99.90
34522;DHT22;25561;48.888;8.736;2023-05-02T15:52:41;16.70;99.90
34522;DHT22;25561;48.888;8.736;2023-05-02T15:55:44;16.60;99.90
34522;DHT22;25561;48.888;8.736;2023-05-02T15:58:46;16.60;99.90
